Terminal Aerodrome Forecast
Issued by NWS

Current Version | Previous Version | Text Only | Print | Product List | Glossary On
Versions: 1 2 3 4 5 6 7 8 9 10 11 12 13 14 15 16 17 18 19 20 21 22 23 24
621
FTUS41 KBUF 291740
TAFIAG
TAF
KIAG 291740Z 2918/3018 06014G25KT P6SM -SHRA BKN007 OVC025
     FM300200 08010KT P6SM VCSH BKN015 OVC045
     FM300500 08010KT P6SM BKN012 OVC045
     FM301100 08010KT P6SM BKN025 BKN060
     FM301400 08013KT P6SM OVC100
     FM301600 08014KT P6SM VCSH OVC100=

USA.gov is the U.S. government's official web portal to all federal, state and local government web resources and services.